sensor_id;sensor_type;location;lat;lon;timestamp;temperature;humidity
9083;DHT22;4577;48.704;9.000;2022-07-29T00:01:26;22.10;63.20
9083;DHT22;4577;48.704;9.000;2022-07-29T00:03:51;22.20;63.40
9083;DHT22;4577;48.704;9.000;2022-07-29T00:06:17;22.00;63.60
9083;DHT22;4577;48.704;9.000;2022-07-29T00:08:43;22.10;63.70
9083;DHT22;4577;48.704;9.000;2022-07-29T00:13:34;22.20;63.40
9083;DHT22;4577;48.704;9.000;2022-07-29T00:16:00;21.80;63.60
9083;DHT22;4577;48.704;9.000;2022-07-29T00:18:26;22.00;63.80
9083;DHT22;4577;48.704;9.000;2022-07-29T00:20:51;21.90;63.60
9083;DHT22;4577;48.704;9.000;2022-07-29T00:23:17;21.90;63.60
9083;DHT22;4577;48.704;9.000;2022-07-29T00:25:43;21.80;63.80
9083;DHT22;4577;48.704;9.000;2022-07-29T00:28:08;21.90;63.80
9083;DHT22;4577;48.704;9.000;2022-07-29T00:30:34;21.60;64.00
9083;DHT22;4577;48.704;9.000;2022-07-29T00:33:00;21.70;64.30
9083;DHT22;4577;48.704;9.000;2022-07-29T00:35:25;21.70;64.30
9083;DHT22;4577;48.704;9.000;2022-07-29T00:38:10;21.80;64.80
9083;DHT22;4577;48.704;9.000;2022-07-29T00:40:36;21.70;64.60
9083;DHT22;4577;48.704;9.000;2022-07-29T00:43:02;21.80;64.40
9083;DHT22;4577;48.704;9.000;2022-07-29T00:45:28;21.80;64.70
9083;DHT22;4577;48.704;9.000;2022-07-29T00:47:55;21.50;64.50
9083;DHT22;4577;48.704;9.000;2022-07-29T00:50:21;21.50;65.30
9083;DHT22;4577;48.704;9.000;2022-07-29T00:52:47;21.40;65.50
9083;DHT22;4577;48.704;9.000;2022-07-29T00:55:15;21.40;66.10
9083;DHT22;4577;48.704;9.000;2022-07-29T00:57:42;21.30;66.30
9083;DHT22;4577;48.704;9.000;2022-07-29T01:00:12;21.10;66.70
9083;DHT22;4577;48.704;9.000;2022-07-29T01:02:39;21.20;67.00
9083;DHT22;4577;48.704;9.000;2022-07-29T01:05:05;21.10;67.20
9083;DHT22;4577;48.704;9.000;2022-07-29T01:07:34;21.20;67.10
9083;DHT22;4577;48.704;9.000;2022-07-29T01:10:02;21.20;67.80
9083;DHT22;4577;48.704;9.000;2022-07-29T01:12:30;21.10;67.30
9083;DHT22;4577;48.704;9.000;2022-07-29T01:15:00;21.20;67.70
9083;DHT22;4577;48.704;9.000;2022-07-29T01:31:20;21.10;67.60
9083;DHT22;4577;48.704;9.000;2022-07-29T01:33:52;21.10;67.80
9083;DHT22;4577;48.704;9.000;2022-07-29T01:36:43;21.00;67.70
9083;DHT22;4577;48.704;9.000;2022-07-29T01:39:10;21.00;67.90
9083;DHT22;4577;48.704;9.000;2022-07-29T01:41:42;21.20;68.20
9083;DHT22;4577;48.704;9.000;2022-07-29T01:44:22;21.10;67.80
9083;DHT22;4577;48.704;9.000;2022-07-29T01:46:55;21.20;67.50
9083;DHT22;4577;48.704;9.000;2022-07-29T01:49:25;21.10;67.00
9083;DHT22;4577;48.704;9.000;2022-07-29T01:51:58;21.10;67.70
9083;DHT22;4577;48.704;9.000;2022-07-29T01:54:38;21.10;67.70
9083;DHT22;4577;48.704;9.000;2022-07-29T01:57:09;21.20;67.30
9083;DHT22;4577;48.704;9.000;2022-07-29T01:59:37;21.10;67.20
9083;DHT22;4577;48.704;9.000;2022-07-29T02:02:05;21.00;66.90
9083;DHT22;4577;48.704;9.000;2022-07-29T02:04:35;21.10;67.60
9083;DHT22;4577;48.704;9.000;2022-07-29T02:07:04;20.80;66.90
9083;DHT22;4577;48.704;9.000;2022-07-29T02:09:32;20.80;67.20
9083;DHT22;4577;48.704;9.000;2022-07-29T02:11:59;20.80;67.90
9083;DHT22;4577;48.704;9.000;2022-07-29T02:14:27;20.80;68.20
9083;DHT22;4577;48.704;9.000;2022-07-29T02:16:55;20.70;67.50
9083;DHT22;4577;48.704;9.000;2022-07-29T02:19:25;20.60;68.20
9083;DHT22;4577;48.704;9.000;2022-07-29T02:21:53;20.60;67.80
9083;DHT22;4577;48.704;9.000;2022-07-29T02:24:20;20.60;67.50
9083;DHT22;4577;48.704;9.000;2022-07-29T02:26:48;20.60;68.10
9083;DHT22;4577;48.704;9.000;2022-07-29T02:29:15;20.50;67.90
9083;DHT22;4577;48.704;9.000;2022-07-29T02:31:41;20.40;68.00
9083;DHT22;4577;48.704;9.000;2022-07-29T02:34:10;20.60;68.80
9083;DHT22;4577;48.704;9.000;2022-07-29T02:36:37;20.60;67.70
9083;DHT22;4577;48.704;9.000;2022-07-29T02:39:04;20.60;67.80
9083;DHT22;4577;48.704;9.000;2022-07-29T02:41:46;20.50;68.00
9083;DHT22;4577;48.704;9.000;2022-07-29T02:44:21;20.60;67.90
9083;DHT22;4577;48.704;9.000;2022-07-29T02:49:53;20.50;68.10
9083;DHT22;4577;48.704;9.000;2022-07-29T02:52:26;20.50;68.20
9083;DHT22;4577;48.704;9.000;2022-07-29T02:57:42;20.40;68.90
9083;DHT22;4577;48.704;9.000;2022-07-29T03:00:09;20.40;69.30
9083;DHT22;4577;48.704;9.000;2022-07-29T03:02:39;20.50;69.80
9083;DHT22;4577;48.704;9.000;2022-07-29T03:05:08;20.40;70.00
9083;DHT22;4577;48.704;9.000;2022-07-29T03:07:35;20.40;70.50
9083;DHT22;4577;48.704;9.000;2022-07-29T03:10:03;20.40;70.10
9083;DHT22;4577;48.704;9.000;2022-07-29T03:12:29;20.40;70.20
9083;DHT22;4577;48.704;9.000;2022-07-29T03:14:56;20.50;70.70
9083;DHT22;4577;48.704;9.000;2022-07-29T03:17:23;20.30;71.10
9083;DHT22;4577;48.704;9.000;2022-07-29T03:19:49;20.40;70.90
9083;DHT22;4577;48.704;9.000;2022-07-29T03:22:15;20.30;70.10
9083;DHT22;4577;48.704;9.000;2022-07-29T03:24:41;20.50;69.50
9083;DHT22;4577;48.704;9.000;2022-07-29T03:29:33;20.60;69.00
9083;DHT22;4577;48.704;9.000;2022-07-29T03:34:24;20.60;68.70
9083;DHT22;4577;48.704;9.000;2022-07-29T03:39:20;20.50;68.20
9083;DHT22;4577;48.704;9.000;2022-07-29T03:41:49;20.50;68.60
9083;DHT22;4577;48.704;9.000;2022-07-29T03:44:16;20.40;68.80
9083;DHT22;4577;48.704;9.000;2022-07-29T03:46:44;20.30;68.70
9083;DHT22;4577;48.704;9.000;2022-07-29T03:49:11;20.40;68.60
9083;DHT22;4577;48.704;9.000;2022-07-29T03:51:39;20.40;68.30
9083;DHT22;4577;48.704;9.000;2022-07-29T03:54:05;20.50;68.60
9083;DHT22;4577;48.704;9.000;2022-07-29T03:56:34;20.40;68.30
9083;DHT22;4577;48.704;9.000;2022-07-29T03:59:02;20.40;67.70
9083;DHT22;4577;48.704;9.000;2022-07-29T04:01:29;20.30;68.20
9083;DHT22;4577;48.704;9.000;2022-07-29T04:03:56;20.20;67.60
9083;DHT22;4577;48.704;9.000;2022-07-29T04:06:22;20.30;67.20
9083;DHT22;4577;48.704;9.000;2022-07-29T04:08:47;20.40;67.20
9083;DHT22;4577;48.704;9.000;2022-07-29T04:11:13;20.40;67.90
9083;DHT22;4577;48.704;9.000;2022-07-29T04:13:39;20.30;67.30
9083;DHT22;4577;48.704;9.000;2022-07-29T04:16:05;20.30;67.40
9083;DHT22;4577;48.704;9.000;2022-07-29T04:18:30;20.30;68.80
9083;DHT22;4577;48.704;9.000;2022-07-29T04:23:26;20.60;67.80
9083;DHT22;4577;48.704;9.000;2022-07-29T04:28:18;20.20;67.70
9083;DHT22;4577;48.704;9.000;2022-07-29T04:30:43;20.20;67.30
9083;DHT22;4577;48.704;9.000;2022-07-29T04:33:09;20.20;67.40
9083;DHT22;4577;48.704;9.000;2022-07-29T04:35:36;20.20;67.40
9083;DHT22;4577;48.704;9.000;2022-07-29T04:38:03;20.50;67.60
9083;DHT22;4577;48.704;9.000;2022-07-29T04:40:29;20.40;67.50
9083;DHT22;4577;48.704;9.000;2022-07-29T04:42:55;20.30;67.10
9083;DHT22;4577;48.704;9.000;2022-07-29T04:45:21;20.30;67.60
9083;DHT22;4577;48.704;9.000;2022-07-29T04:47:46;20.40;67.20
9083;DHT22;4577;48.704;9.000;2022-07-29T04:50:12;20.40;67.50
9083;DHT22;4577;48.704;9.000;2022-07-29T04:52:38;20.40;67.70
9083;DHT22;4577;48.704;9.000;2022-07-29T04:55:04;20.00;68.00
9083;DHT22;4577;48.704;9.000;2022-07-29T04:57:30;20.00;68.70
9083;DHT22;4577;48.704;9.000;2022-07-29T04:59:56;20.00;69.40
9083;DHT22;4577;48.704;9.000;2022-07-29T05:02:21;20.00;69.20
9083;DHT22;4577;48.704;9.000;2022-07-29T05:04:48;20.10;69.00
9083;DHT22;4577;48.704;9.000;2022-07-29T05:09:40;20.30;69.20
9083;DHT22;4577;48.704;9.000;2022-07-29T05:12:07;20.20;69.20
9083;DHT22;4577;48.704;9.000;2022-07-29T05:14:33;20.20;69.30
9083;DHT22;4577;48.704;9.000;2022-07-29T05:16:58;20.30;68.70
9083;DHT22;4577;48.704;9.000;2022-07-29T05:19:24;20.20;69.00
9083;DHT22;4577;48.704;9.000;2022-07-29T05:21:50;20.40;68.50
9083;DHT22;4577;48.704;9.000;2022-07-29T05:24:16;20.40;68.30
9083;DHT22;4577;48.704;9.000;2022-07-29T05:26:41;20.50;68.20
9083;DHT22;4577;48.704;9.000;2022-07-29T05:29:08;20.60;68.20
9083;DHT22;4577;48.704;9.000;2022-07-29T05:31:33;20.40;68.60
9083;DHT22;4577;48.704;9.000;2022-07-29T05:33:59;20.50;68.00
9083;DHT22;4577;48.704;9.000;2022-07-29T05:36:25;20.50;68.00
9083;DHT22;4577;48.704;9.000;2022-07-29T05:38:51;20.50;67.70
9083;DHT22;4577;48.704;9.000;2022-07-29T05:41:18;20.50;67.70
9083;DHT22;4577;48.704;9.000;2022-07-29T05:43:43;20.60;67.70
9083;DHT22;4577;48.704;9.000;2022-07-29T05:48:35;20.60;67.60
9083;DHT22;4577;48.704;9.000;2022-07-29T05:51:01;20.60;67.70
9083;DHT22;4577;48.704;9.000;2022-07-29T05:53:27;20.50;67.50
9083;DHT22;4577;48.704;9.000;2022-07-29T05:55:53;20.80;67.50
9083;DHT22;4577;48.704;9.000;2022-07-29T05:58:18;20.90;67.30
9083;DHT22;4577;48.704;9.000;2022-07-29T06:03:11;20.90;67.10
9083;DHT22;4577;48.704;9.000;2022-07-29T06:08:03;20.80;67.50
9083;DHT22;4577;48.704;9.000;2022-07-29T06:15:24;21.00;67.40
9083;DHT22;4577;48.704;9.000;2022-07-29T06:20:16;21.10;67.60
9083;DHT22;4577;48.704;9.000;2022-07-29T06:22:42;21.00;67.30
9083;DHT22;4577;48.704;9.000;2022-07-29T06:25:08;21.00;67.50
9083;DHT22;4577;48.704;9.000;2022-07-29T06:27:33;21.10;67.40
9083;DHT22;4577;48.704;9.000;2022-07-29T06:29:59;20.90;67.00
9083;DHT22;4577;48.704;9.000;2022-07-29T06:34:51;21.20;67.30
9083;DHT22;4577;48.704;9.000;2022-07-29T06:44:35;21.30;66.90
9083;DHT22;4577;48.704;9.000;2022-07-29T06:47:01;21.30;67.10
9083;DHT22;4577;48.704;9.000;2022-07-29T06:49:27;21.30;67.10
9083;DHT22;4577;48.704;9.000;2022-07-29T06:51:54;21.40;67.10
9083;DHT22;4577;48.704;9.000;2022-07-29T06:56:47;21.30;67.10
9083;DHT22;4577;48.704;9.000;2022-07-29T07:01:41;21.40;66.10
9083;DHT22;4577;48.704;9.000;2022-07-29T07:04:07;21.40;66.10
9083;DHT22;4577;48.704;9.000;2022-07-29T07:06:34;21.40;66.50
9083;DHT22;4577;48.704;9.000;2022-07-29T07:09:00;21.50;66.00
9083;DHT22;4577;48.704;9.000;2022-07-29T07:11:26;21.50;65.70
9083;DHT22;4577;48.704;9.000;2022-07-29T07:13:52;21.70;65.80
9083;DHT22;4577;48.704;9.000;2022-07-29T07:16:18;21.60;65.80
9083;DHT22;4577;48.704;9.000;2022-07-29T07:21:11;21.70;66.00
9083;DHT22;4577;48.704;9.000;2022-07-29T07:26:03;21.80;65.70
9083;DHT22;4577;48.704;9.000;2022-07-29T07:28:30;21.90;65.40
9083;DHT22;4577;48.704;9.000;2022-07-29T07:33:22;22.10;65.00
9083;DHT22;4577;48.704;9.000;2022-07-29T07:35:48;22.10;65.00
9083;DHT22;4577;48.704;9.000;2022-07-29T07:38:14;22.10;64.80
9083;DHT22;4577;48.704;9.000;2022-07-29T07:40:41;22.10;64.60
9083;DHT22;4577;48.704;9.000;2022-07-29T07:47:59;22.30;63.40
9083;DHT22;4577;48.704;9.000;2022-07-29T07:52:57;22.50;63.70
9083;DHT22;4577;48.704;9.000;2022-07-29T07:55:24;22.40;63.40
9083;DHT22;4577;48.704;9.000;2022-07-29T07:57:49;22.40;63.10
9083;DHT22;4577;48.704;9.000;2022-07-29T08:00:16;22.40;62.90
9083;DHT22;4577;48.704;9.000;2022-07-29T08:02:42;22.20;62.60
9083;DHT22;4577;48.704;9.000;2022-07-29T08:05:08;22.40;62.60
9083;DHT22;4577;48.704;9.000;2022-07-29T08:10:01;22.20;62.50
9083;DHT22;4577;48.704;9.000;2022-07-29T08:12:27;22.10;62.70
9083;DHT22;4577;48.704;9.000;2022-07-29T08:14:53;22.20;62.80
9083;DHT22;4577;48.704;9.000;2022-07-29T08:17:19;22.30;62.70
9083;DHT22;4577;48.704;9.000;2022-07-29T08:19:45;22.30;61.80
9083;DHT22;4577;48.704;9.000;2022-07-29T08:24:39;22.50;59.60
9083;DHT22;4577;48.704;9.000;2022-07-29T08:27:09;22.40;59.30
9083;DHT22;4577;48.704;9.000;2022-07-29T08:29:35;22.50;59.00
9083;DHT22;4577;48.704;9.000;2022-07-29T08:32:01;22.60;58.80
9083;DHT22;4577;48.704;9.000;2022-07-29T08:41:47;22.60;58.40
9083;DHT22;4577;48.704;9.000;2022-07-29T08:44:19;22.70;58.20
9083;DHT22;4577;48.704;9.000;2022-07-29T08:46:48;22.60;57.40
9083;DHT22;4577;48.704;9.000;2022-07-29T08:54:09;22.80;56.40
9083;DHT22;4577;48.704;9.000;2022-07-29T08:59:05;22.90;56.00
9083;DHT22;4577;48.704;9.000;2022-07-29T09:01:34;22.90;53.30
9083;DHT22;4577;48.704;9.000;2022-07-29T09:04:04;22.90;53.60
9083;DHT22;4577;48.704;9.000;2022-07-29T09:06:32;22.90;53.40
9083;DHT22;4577;48.704;9.000;2022-07-29T09:09:00;23.00;52.40
9083;DHT22;4577;48.704;9.000;2022-07-29T09:11:26;23.20;52.60
9083;DHT22;4577;48.704;9.000;2022-07-29T09:13:52;23.40;50.90
9083;DHT22;4577;48.704;9.000;2022-07-29T09:18:46;23.60;50.50
9083;DHT22;4577;48.704;9.000;2022-07-29T09:21:14;23.60;50.30
9083;DHT22;4577;48.704;9.000;2022-07-29T09:24:04;23.70;51.00
9083;DHT22;4577;48.704;9.000;2022-07-29T09:26:32;23.50;49.60
9083;DHT22;4577;48.704;9.000;2022-07-29T09:31:35;23.70;49.20
9083;DHT22;4577;48.704;9.000;2022-07-29T09:34:02;23.60;50.00
9083;DHT22;4577;48.704;9.000;2022-07-29T09:39:01;23.50;50.90
9083;DHT22;4577;48.704;9.000;2022-07-29T09:41:28;23.50;50.80
9083;DHT22;4577;48.704;9.000;2022-07-29T09:43:58;23.80;49.20
9083;DHT22;4577;48.704;9.000;2022-07-29T09:46:25;23.90;49.60
9083;DHT22;4577;48.704;9.000;2022-07-29T09:49:11;24.00;49.90
9083;DHT22;4577;48.704;9.000;2022-07-29T09:51:38;24.10;49.60
9083;DHT22;4577;48.704;9.000;2022-07-29T09:54:26;24.10;49.00
9083;DHT22;4577;48.704;9.000;2022-07-29T09:56:54;24.10;48.10
9083;DHT22;4577;48.704;9.000;2022-07-29T09:59:21;24.10;48.20
9083;DHT22;4577;48.704;9.000;2022-07-29T10:01:49;24.10;48.80
9083;DHT22;4577;48.704;9.000;2022-07-29T10:04:16;24.20;49.60
9083;DHT22;4577;48.704;9.000;2022-07-29T10:06:59;24.10;49.10
9083;DHT22;4577;48.704;9.000;2022-07-29T10:09:25;24.20;49.00
9083;DHT22;4577;48.704;9.000;2022-07-29T10:12:13;24.00;47.90
9083;DHT22;4577;48.704;9.000;2022-07-29T10:14:43;24.00;48.70
9083;DHT22;4577;48.704;9.000;2022-07-29T10:17:10;23.90;48.50
9083;DHT22;4577;48.704;9.000;2022-07-29T10:19:37;23.90;48.70
9083;DHT22;4577;48.704;9.000;2022-07-29T10:22:06;24.00;48.90
9083;DHT22;4577;48.704;9.000;2022-07-29T10:24:33;23.90;50.10
9083;DHT22;4577;48.704;9.000;2022-07-29T10:27:00;23.70;54.60
9083;DHT22;4577;48.704;9.000;2022-07-29T10:29:30;22.50;60.90
9083;DHT22;4577;48.704;9.000;2022-07-29T10:35:11;20.80;71.50
9083;DHT22;4577;48.704;9.000;2022-07-29T10:43:22;17.90;99.90
9083;DHT22;4577;48.704;9.000;2022-07-29T10:45:56;17.70;99.90
9083;DHT22;4577;48.704;9.000;2022-07-29T10:48:22;17.80;99.90
9083;DHT22;4577;48.704;9.000;2022-07-29T10:53:24;17.70;99.90
9083;DHT22;4577;48.704;9.000;2022-07-29T10:55:53;17.80;99.90
9083;DHT22;4577;48.704;9.000;2022-07-29T10:58:23;18.10;99.90
9083;DHT22;4577;48.704;9.000;2022-07-29T11:00:53;17.90;99.90
9083;DHT22;4577;48.704;9.000;2022-07-29T11:08:33;19.00;99.90
9083;DHT22;4577;48.704;9.000;2022-07-29T11:13:52;19.20;99.90
9083;DHT22;4577;48.704;9.000;2022-07-29T11:16:21;19.30;99.90
9083;DHT22;4577;48.704;9.000;2022-07-29T11:21:40;19.30;99.90
9083;DHT22;4577;48.704;9.000;2022-07-29T11:24:28;19.40;99.90
9083;DHT22;4577;48.704;9.000;2022-07-29T11:27:12;19.30;99.90
9083;DHT22;4577;48.704;9.000;2022-07-29T11:29:54;19.60;99.90
9083;DHT22;4577;48.704;9.000;2022-07-29T11:32:20;19.80;99.90
9083;DHT22;4577;48.704;9.000;2022-07-29T11:34:48;20.00;99.90
9083;DHT22;4577;48.704;9.000;2022-07-29T11:37:15;20.40;99.90
9083;DHT22;4577;48.704;9.000;2022-07-29T11:45:05;20.30;99.90
9083;DHT22;4577;48.704;9.000;2022-07-29T11:47:33;20.40;99.90
9083;DHT22;4577;48.704;9.000;2022-07-29T11:50:00;20.50;99.90
9083;DHT22;4577;48.704;9.000;2022-07-29T11:52:34;20.80;99.90
9083;DHT22;4577;48.704;9.000;2022-07-29T11:55:04;20.90;99.90
9083;DHT22;4577;48.704;9.000;2022-07-29T11:57:31;20.90;99.90
9083;DHT22;4577;48.704;9.000;2022-07-29T12:02:24;21.10;99.90
9083;DHT22;4577;48.704;9.000;2022-07-29T12:07:16;21.10;99.90
9083;DHT22;4577;48.704;9.000;2022-07-29T12:09:52;21.40;99.90
9083;DHT22;4577;48.704;9.000;2022-07-29T12:12:19;21.20;99.90
9083;DHT22;4577;48.704;9.000;2022-07-29T12:17:32;21.20;99.90
9083;DHT22;4577;48.704;9.000;2022-07-29T12:20:00;21.20;99.90
9083;DHT22;4577;48.704;9.000;2022-07-29T12:22:30;21.30;99.90
9083;DHT22;4577;48.704;9.000;2022-07-29T12:25:02;21.30;99.90
9083;DHT22;4577;48.704;9.000;2022-07-29T12:29:59;21.30;99.90
9083;DHT22;4577;48.704;9.000;2022-07-29T12:32:43;21.30;99.90
9083;DHT22;4577;48.704;9.000;2022-07-29T12:35:14;21.10;99.90
9083;DHT22;4577;48.704;9.000;2022-07-29T12:37:43;21.20;99.90
9083;DHT22;4577;48.704;9.000;2022-07-29T12:40:11;21.30;99.90
9083;DHT22;4577;48.704;9.000;2022-07-29T12:45:05;21.20;99.90
9083;DHT22;4577;48.704;9.000;2022-07-29T12:50:09;21.20;99.90
9083;DHT22;4577;48.704;9.000;2022-07-29T12:53:03;21.20;99.90
9083;DHT22;4577;48.704;9.000;2022-07-29T12:55:46;21.30;99.90
9083;DHT22;4577;48.704;9.000;2022-07-29T12:58:25;21.30;99.90
9083;DHT22;4577;48.704;9.000;2022-07-29T13:01:17;21.40;99.90
9083;DHT22;4577;48.704;9.000;2022-07-29T13:06:34;21.30;99.70
9083;DHT22;4577;48.704;9.000;2022-07-29T13:09:11;21.40;99.90
9083;DHT22;4577;48.704;9.000;2022-07-29T13:11:47;21.10;99.90
9083;DHT22;4577;48.704;9.000;2022-07-29T13:14:31;21.10;99.90
9083;DHT22;4577;48.704;9.000;2022-07-29T13:19:37;21.10;98.80
9083;DHT22;4577;48.704;9.000;2022-07-29T13:22:04;20.90;99.40
9083;DHT22;4577;48.704;9.000;2022-07-29T13:34:14;21.60;99.90
9083;DHT22;4577;48.704;9.000;2022-07-29T13:39:06;21.80;99.70
9083;DHT22;4577;48.704;9.000;2022-07-29T13:41:32;21.80;98.00
9083;DHT22;4577;48.704;9.000;2022-07-29T13:43:57;21.50;97.30
9083;DHT22;4577;48.704;9.000;2022-07-29T13:46:23;21.90;99.90
9083;DHT22;4577;48.704;9.000;2022-07-29T13:48:49;22.10;98.30
9083;DHT22;4577;48.704;9.000;2022-07-29T13:51:14;22.10;95.20
9083;DHT22;4577;48.704;9.000;2022-07-29T13:53:40;22.10;96.30
9083;DHT22;4577;48.704;9.000;2022-07-29T13:58:32;22.20;92.00
9083;DHT22;4577;48.704;9.000;2022-07-29T14:00:58;22.10;90.80
9083;DHT22;4577;48.704;9.000;2022-07-29T14:03:24;22.30;91.70
9083;DHT22;4577;48.704;9.000;2022-07-29T14:05:51;22.40;91.80
9083;DHT22;4577;48.704;9.000;2022-07-29T14:08:16;22.60;93.80
9083;DHT22;4577;48.704;9.000;2022-07-29T14:10:42;22.60;92.50
9083;DHT22;4577;48.704;9.000;2022-07-29T14:18:01;22.70;91.90
9083;DHT22;4577;48.704;9.000;2022-07-29T14:20:27;22.70;92.00
9083;DHT22;4577;48.704;9.000;2022-07-29T14:27:47;22.90;92.90
9083;DHT22;4577;48.704;9.000;2022-07-29T14:32:40;23.10;91.10
9083;DHT22;4577;48.704;9.000;2022-07-29T14:35:06;23.20;91.20
9083;DHT22;4577;48.704;9.000;2022-07-29T14:47:20;23.30;89.80
9083;DHT22;4577;48.704;9.000;2022-07-29T14:59:31;23.20;84.80
9083;DHT22;4577;48.704;9.000;2022-07-29T15:01:57;23.40;85.40
9083;DHT22;4577;48.704;9.000;2022-07-29T15:06:48;23.40;82.50
9083;DHT22;4577;48.704;9.000;2022-07-29T15:09:14;23.20;80.60
9083;DHT22;4577;48.704;9.000;2022-07-29T15:14:09;23.20;83.20
9083;DHT22;4577;48.704;9.000;2022-07-29T15:16:36;23.20;81.40
9083;DHT22;4577;48.704;9.000;2022-07-29T15:19:03;23.20;81.10
9083;DHT22;4577;48.704;9.000;2022-07-29T15:21:29;23.30;81.90
9083;DHT22;4577;48.704;9.000;2022-07-29T15:23:54;23.20;80.10
9083;DHT22;4577;48.704;9.000;2022-07-29T15:26:20;23.30;80.20
9083;DHT22;4577;48.704;9.000;2022-07-29T15:28:46;23.30;82.20
9083;DHT22;4577;48.704;9.000;2022-07-29T15:31:11;23.30;80.10
9083;DHT22;4577;48.704;9.000;2022-07-29T15:33:37;23.50;79.80
9083;DHT22;4577;48.704;9.000;2022-07-29T15:43:22;23.30;80.90
9083;DHT22;4577;48.704;9.000;2022-07-29T15:48:37;23.30;80.40
9083;DHT22;4577;48.704;9.000;2022-07-29T15:51:03;23.40;81.10
9083;DHT22;4577;48.704;9.000;2022-07-29T15:53:29;23.30;81.90
9083;DHT22;4577;48.704;9.000;2022-07-29T15:58:21;23.30;79.60
9083;DHT22;4577;48.704;9.000;2022-07-29T16:00:47;23.40;79.90
9083;DHT22;4577;48.704;9.000;2022-07-29T16:03:13;23.40;77.60
9083;DHT22;4577;48.704;9.000;2022-07-29T16:05:39;23.50;78.40
9083;DHT22;4577;48.704;9.000;2022-07-29T16:08:05;23.40;79.10
9083;DHT22;4577;48.704;9.000;2022-07-29T16:10:31;23.30;77.60
9083;DHT22;4577;48.704;9.000;2022-07-29T16:12:56;23.30;78.20
9083;DHT22;4577;48.704;9.000;2022-07-29T16:15:22;23.40;78.90
9083;DHT22;4577;48.704;9.000;2022-07-29T16:17:48;23.30;79.30
9083;DHT22;4577;48.704;9.000;2022-07-29T16:20:15;23.30;79.10
9083;DHT22;4577;48.704;9.000;2022-07-29T16:27:33;23.30;77.50
9083;DHT22;4577;48.704;9.000;2022-07-29T16:34:52;23.10;75.60
9083;DHT22;4577;48.704;9.000;2022-07-29T16:39:43;23.20;74.70
9083;DHT22;4577;48.704;9.000;2022-07-29T16:42:09;23.30;74.30
9083;DHT22;4577;48.704;9.000;2022-07-29T16:44:35;23.40;75.90
9083;DHT22;4577;48.704;9.000;2022-07-29T16:47:00;23.40;75.60
9083;DHT22;4577;48.704;9.000;2022-07-29T16:49:26;23.40;76.10
9083;DHT22;4577;48.704;9.000;2022-07-29T16:51:52;23.40;76.90
9083;DHT22;4577;48.704;9.000;2022-07-29T16:54:18;23.40;78.00
9083;DHT22;4577;48.704;9.000;2022-07-29T17:01:36;23.50;78.20
9083;DHT22;4577;48.704;9.000;2022-07-29T17:04:02;23.50;78.80
9083;DHT22;4577;48.704;9.000;2022-07-29T17:06:38;23.60;77.20
9083;DHT22;4577;48.704;9.000;2022-07-29T17:09:05;23.70;77.10
9083;DHT22;4577;48.704;9.000;2022-07-29T17:11:32;23.80;74.60
9083;DHT22;4577;48.704;9.000;2022-07-29T17:16:25;23.90;72.80
9083;DHT22;4577;48.704;9.000;2022-07-29T17:18:52;23.90;69.60
9083;DHT22;4577;48.704;9.000;2022-07-29T17:21:18;23.80;72.80
9083;DHT22;4577;48.704;9.000;2022-07-29T17:31:03;23.70;56.10
9083;DHT22;4577;48.704;9.000;2022-07-29T17:33:28;23.70;56.20
9083;DHT22;4577;48.704;9.000;2022-07-29T17:35:54;23.80;54.80
9083;DHT22;4577;48.704;9.000;2022-07-29T17:41:04;23.80;56.50
9083;DHT22;4577;48.704;9.000;2022-07-29T17:43:30;24.00;53.40
9083;DHT22;4577;48.704;9.000;2022-07-29T17:50:48;24.10;53.20
9083;DHT22;4577;48.704;9.000;2022-07-29T17:53:14;24.30;51.40
9083;DHT22;4577;48.704;9.000;2022-07-29T17:58:06;24.60;49.20
9083;DHT22;4577;48.704;9.000;2022-07-29T18:00:35;24.60;48.70
9083;DHT22;4577;48.704;9.000;2022-07-29T18:03:00;24.60;47.50
9083;DHT22;4577;48.704;9.000;2022-07-29T18:05:26;24.60;46.80
9083;DHT22;4577;48.704;9.000;2022-07-29T18:07:52;24.40;46.00
9083;DHT22;4577;48.704;9.000;2022-07-29T18:10:21;24.40;46.40
9083;DHT22;4577;48.704;9.000;2022-07-29T18:15:13;24.40;45.80
9083;DHT22;4577;48.704;9.000;2022-07-29T18:20:06;24.40;47.00
9083;DHT22;4577;48.704;9.000;2022-07-29T18:24:58;24.20;48.40
9083;DHT22;4577;48.704;9.000;2022-07-29T18:27:24;24.30;48.60
9083;DHT22;4577;48.704;9.000;2022-07-29T18:29:51;24.20;49.50
9083;DHT22;4577;48.704;9.000;2022-07-29T18:32:18;24.10;49.60
9083;DHT22;4577;48.704;9.000;2022-07-29T18:34:43;24.10;49.40
9083;DHT22;4577;48.704;9.000;2022-07-29T18:37:09;24.00;48.80
9083;DHT22;4577;48.704;9.000;2022-07-29T18:39:35;24.20;49.00
9083;DHT22;4577;48.704;9.000;2022-07-29T18:42:01;24.00;50.40
9083;DHT22;4577;48.704;9.000;2022-07-29T18:44:26;24.10;49.60
9083;DHT22;4577;48.704;9.000;2022-07-29T18:46:53;24.00;49.40
9083;DHT22;4577;48.704;9.000;2022-07-29T18:49:20;23.90;50.40
9083;DHT22;4577;48.704;9.000;2022-07-29T18:51:46;23.90;49.80
9083;DHT22;4577;48.704;9.000;2022-07-29T18:54:12;23.60;51.50
9083;DHT22;4577;48.704;9.000;2022-07-29T18:56:37;23.60;49.70
9083;DHT22;4577;48.704;9.000;2022-07-29T18:59:03;23.60;49.30
9083;DHT22;4577;48.704;9.000;2022-07-29T19:01:29;23.50;51.50
9083;DHT22;4577;48.704;9.000;2022-07-29T19:03:55;23.60;50.70
9083;DHT22;4577;48.704;9.000;2022-07-29T19:06:20;23.50;55.10
9083;DHT22;4577;48.704;9.000;2022-07-29T19:08:46;23.40;49.00
9083;DHT22;4577;48.704;9.000;2022-07-29T19:13:38;23.30;50.40
9083;DHT22;4577;48.704;9.000;2022-07-29T19:16:05;23.40;51.60
9083;DHT22;4577;48.704;9.000;2022-07-29T19:20:56;23.20;53.60
9083;DHT22;4577;48.704;9.000;2022-07-29T19:23:22;23.10;53.40
9083;DHT22;4577;48.704;9.000;2022-07-29T19:28:14;23.20;54.80
9083;DHT22;4577;48.704;9.000;2022-07-29T19:30:39;23.10;54.10
9083;DHT22;4577;48.704;9.000;2022-07-29T19:33:05;23.30;54.90
9083;DHT22;4577;48.704;9.000;2022-07-29T19:35:31;23.10;55.70
9083;DHT22;4577;48.704;9.000;2022-07-29T19:37:59;23.00;56.20
9083;DHT22;4577;48.704;9.000;2022-07-29T19:40:26;23.10;58.40
9083;DHT22;4577;48.704;9.000;2022-07-29T19:42:52;23.10;63.70
9083;DHT22;4577;48.704;9.000;2022-07-29T19:45:20;22.90;66.00
9083;DHT22;4577;48.704;9.000;2022-07-29T19:47:47;22.70;67.90
9083;DHT22;4577;48.704;9.000;2022-07-29T19:50:13;22.70;68.40
9083;DHT22;4577;48.704;9.000;2022-07-29T19:52:39;22.60;70.10
9083;DHT22;4577;48.704;9.000;2022-07-29T19:55:05;22.60;70.40
9083;DHT22;4577;48.704;9.000;2022-07-29T19:57:31;22.60;70.20
9083;DHT22;4577;48.704;9.000;2022-07-29T20:02:23;22.40;70.80
9083;DHT22;4577;48.704;9.000;2022-07-29T20:04:49;22.20;71.00
9083;DHT22;4577;48.704;9.000;2022-07-29T20:12:08;22.10;71.30
9083;DHT22;4577;48.704;9.000;2022-07-29T20:14:34;22.20;69.70
9083;DHT22;4577;48.704;9.000;2022-07-29T20:17:00;22.20;70.90
9083;DHT22;4577;48.704;9.000;2022-07-29T20:19:26;22.30;69.20
9083;DHT22;4577;48.704;9.000;2022-07-29T20:21:52;22.40;65.90
9083;DHT22;4577;48.704;9.000;2022-07-29T20:24:19;22.60;66.90
9083;DHT22;4577;48.704;9.000;2022-07-29T20:26:45;22.60;67.00
9083;DHT22;4577;48.704;9.000;2022-07-29T20:29:11;22.50;68.70
9083;DHT22;4577;48.704;9.000;2022-07-29T20:31:37;22.60;64.90
9083;DHT22;4577;48.704;9.000;2022-07-29T20:38:55;22.40;63.70
9083;DHT22;4577;48.704;9.000;2022-07-29T20:41:21;22.10;61.40
9083;DHT22;4577;48.704;9.000;2022-07-29T20:43:46;22.10;62.10
9083;DHT22;4577;48.704;9.000;2022-07-29T20:46:16;22.30;62.70
9083;DHT22;4577;48.704;9.000;2022-07-29T20:51:08;22.00;61.00